createdAt,value
2018-04-26T00:03:21.645Z,8.20
2018-04-26T00:07:55.614Z,8.20
2018-04-26T00:12:28.864Z,8.10
2018-04-26T00:17:02.869Z,7.90
2018-04-26T00:21:36.070Z,7.90
2018-04-26T00:26:09.265Z,7.90
2018-04-26T00:30:42.619Z,8.00
2018-04-26T00:35:16.071Z,7.90
2018-04-26T00:39:49.325Z,7.90
2018-04-26T00:44:22.663Z,7.80
2018-04-26T00:48:55.893Z,7.70
2018-04-26T00:53:29.115Z,7.70
2018-04-26T00:58:02.524Z,7.80
2018-04-26T01:02:35.735Z,7.70
2018-04-26T01:07:08.930Z,7.60
2018-04-26T01:11:42.155Z,7.50
2018-04-26T01:16:15.358Z,7.50
2018-04-26T01:20:48.575Z,7.30
2018-04-26T01:25:21.779Z,7.30
2018-04-26T01:29:54.990Z,7.20
2018-04-26T01:34:28.208Z,7.10
2018-04-26T01:39:01.401Z,7.20
2018-04-26T01:43:34.618Z,7.20
2018-04-26T01:48:07.951Z,7.10
2018-04-26T01:52:41.929Z,6.90
2018-04-26T01:57:15.161Z,6.80
2018-04-26T02:01:48.342Z,6.80
2018-04-26T02:06:21.571Z,6.70
2018-04-26T02:10:55.547Z,6.50
2018-04-26T02:15:28.829Z,6.40
2018-04-26T02:20:02.859Z,6.40
2018-04-26T02:24:36.815Z,6.40
2018-04-26T02:29:10.038Z,6.40
2018-04-26T02:33:43.265Z,6.30
2018-04-26T02:38:16.485Z,6.30
2018-04-26T02:42:50.492Z,6.20
2018-04-26T02:47:23.712Z,6.10
2018-04-26T02:51:56.943Z,6.10
2018-04-26T02:56:30.143Z,5.90
2018-04-26T03:01:04.173Z,6.00
2018-04-26T03:05:38.299Z,5.90
2018-04-26T03:10:12.279Z,5.90
2018-04-26T03:14:46.091Z,5.80
2018-04-26T03:19:19.451Z,5.80
2018-04-26T03:23:52.619Z,5.70
2018-04-26T03:28:25.818Z,5.80
2018-04-26T03:32:59.072Z,5.80
2018-04-26T03:37:33.031Z,5.50
2018-04-26T03:42:06.250Z,5.40
2018-04-26T03:46:39.451Z,5.50
2018-04-26T03:51:12.652Z,5.50
2018-04-26T03:55:45.866Z,5.60
2018-04-26T04:00:31.277Z,5.70
2018-04-26T04:05:16.572Z,5.90
2018-04-26T04:09:49.766Z,6.00
2018-04-26T04:14:22.989Z,6.20
2018-04-26T04:18:56.190Z,6.20
2018-04-26T04:23:29.398Z,6.40
2018-04-26T04:28:03.504Z,6.60
2018-04-26T04:32:36.770Z,6.60
2018-04-26T04:37:09.911Z,6.80
2018-04-26T04:41:43.122Z,6.80
2018-04-26T04:46:16.280Z,6.90
2018-04-26T04:50:49.484Z,7.10
2018-04-26T04:55:22.851Z,7.40
2018-04-26T04:59:56.196Z,7.60
2018-04-26T05:04:29.405Z,7.60
2018-04-26T05:09:02.627Z,7.60
2018-04-26T05:13:36.606Z,7.60
2018-04-26T05:18:09.878Z,7.60
2018-04-26T05:22:43.850Z,7.80
2018-04-26T05:27:17.042Z,7.70
2018-04-26T05:31:50.906Z,8.00
2018-04-26T05:36:25.392Z,8.40
2018-04-26T05:40:58.641Z,8.30
2018-04-26T05:45:31.831Z,8.50
2018-04-26T05:50:05.068Z,8.70
2018-04-26T05:54:38.265Z,8.90
2018-04-26T05:59:12.270Z,9.10
2018-04-26T06:03:45.539Z,9.10
2018-04-26T06:08:18.719Z,9.30
2018-04-26T06:12:52.770Z,9.80
2018-04-26T06:17:26.048Z,9.70
2018-04-26T06:21:59.309Z,10.10
2018-04-26T06:26:32.672Z,10.20
2018-04-26T06:31:05.906Z,10.30
2018-04-26T06:35:39.241Z,10.60
2018-04-26T06:40:12.489Z,10.70
2018-04-26T06:44:45.673Z,10.90
2018-04-26T06:49:19.011Z,11.00
2018-04-26T06:53:52.242Z,11.20
2018-04-26T06:58:25.456Z,11.30
2018-04-26T07:02:58.842Z,11.30
2018-04-26T07:07:32.813Z,11.40
2018-04-26T07:12:07.043Z,11.30
2018-04-26T07:16:40.234Z,11.70
2018-04-26T07:21:13.465Z,12.40
2018-04-26T07:25:46.651Z,12.80
2018-04-26T07:30:19.895Z,12.70
2018-04-26T07:34:53.234Z,12.70
2018-04-26T07:39:26.499Z,13.00
2018-04-26T07:44:00.439Z,12.60
2018-04-26T07:48:33.657Z,12.60
2018-04-26T07:53:08.483Z,13.00
2018-04-26T07:57:41.652Z,13.00
2018-04-26T08:02:14.841Z,13.00
2018-04-26T08:06:48.852Z,15.00
2018-04-26T08:11:22.905Z,17.10
2018-04-26T08:15:56.513Z,16.90
2018-04-26T08:20:30.020Z,16.80
2018-04-26T08:25:03.721Z,17.70
2018-04-26T08:29:37.761Z,19.40
2018-04-26T08:34:11.764Z,19.90
2018-04-26T08:38:44.990Z,19.80
2018-04-26T08:43:19.004Z,19.70
2018-04-26T08:47:52.325Z,19.60
2018-04-26T08:52:26.383Z,21.20
2018-04-26T08:57:00.366Z,20.40
2018-04-26T09:01:34.375Z,19.30
2018-04-26T09:06:07.667Z,19.20
2018-04-26T09:10:40.914Z,17.20
2018-04-26T09:15:15.230Z,16.20
2018-04-26T09:19:48.487Z,16.10
2018-04-26T09:24:21.732Z,16.60
2018-04-26T09:28:54.954Z,19.00
2018-04-26T09:33:28.959Z,21.80
2018-04-26T09:38:02.224Z,21.70
2018-04-26T09:42:35.423Z,23.30
2018-04-26T09:47:09.429Z,18.60
2018-04-26T09:51:42.689Z,18.40
2018-04-26T09:56:15.966Z,16.40
2018-04-26T10:00:52.740Z,16.00
2018-04-26T10:05:31.617Z,16.00
2018-04-26T10:10:04.958Z,18.90
2018-04-26T10:14:38.240Z,21.30
2018-04-26T10:19:11.417Z,23.20
2018-04-26T10:23:45.408Z,20.70
2018-04-26T10:28:19.429Z,20.50
2018-04-26T10:32:52.641Z,20.40
2018-04-26T10:37:25.957Z,22.30
2018-04-26T10:41:59.203Z,23.80
2018-04-26T10:46:32.420Z,23.30
2018-04-26T10:51:05.797Z,22.60
2018-04-26T10:55:39.729Z,19.30
2018-04-26T11:00:13.796Z,18.40
2018-04-26T11:04:47.055Z,18.30
2018-04-26T11:09:21.025Z,16.70
2018-04-26T11:13:54.260Z,16.50
2018-04-26T11:18:27.506Z,16.20
2018-04-26T11:23:01.694Z,17.70
2018-04-26T11:27:34.903Z,17.70
2018-04-26T11:32:08.128Z,18.10
2018-04-26T11:36:42.671Z,17.20
2018-04-26T11:41:16.671Z,16.30
2018-04-26T11:45:49.826Z,16.30
2018-04-26T11:50:23.807Z,15.80
2018-04-26T11:54:57.555Z,15.80
2018-04-26T11:59:31.579Z,16.60
2018-04-26T12:04:05.564Z,18.90
2018-04-26T12:08:38.781Z,18.80
2018-04-26T12:18:15.494Z,19.40
2018-04-26T12:22:48.723Z,18.10
2018-04-26T12:27:21.946Z,18.50
2018-04-26T12:31:55.547Z,19.00
2018-04-26T12:36:28.779Z,19.40
2018-04-26T12:41:02.804Z,20.30
2018-04-26T12:45:36.810Z,22.90
2018-04-26T12:50:10.134Z,22.80
2018-04-26T12:54:44.130Z,24.30
2018-04-26T12:59:17.466Z,24.20
2018-04-26T13:03:51.427Z,25.10
2018-04-26T13:08:24.710Z,25.00
2018-04-26T13:12:58.804Z,25.10
2018-04-26T13:17:32.032Z,25.00
2018-04-26T13:22:07.066Z,22.00
2018-04-26T13:26:40.311Z,21.90
2018-04-26T13:31:13.532Z,20.30
2018-04-26T13:35:46.769Z,19.70
2018-04-26T13:40:20.009Z,19.80
2018-04-26T13:44:54.039Z,20.80
2018-04-26T13:49:28.039Z,20.60
2018-04-26T13:54:01.316Z,20.60
2018-04-26T13:58:34.561Z,20.70
2018-04-26T14:03:07.795Z,20.40
2018-04-26T14:07:41.825Z,20.30
2018-04-26T14:12:15.824Z,19.50
2018-04-26T14:16:49.172Z,19.40
2018-04-26T14:21:22.428Z,18.80
2018-04-26T14:25:55.677Z,19.20
2018-04-26T14:30:29.704Z,18.90
2018-04-26T14:35:02.953Z,18.80
2018-04-26T14:39:36.143Z,18.50
2018-04-26T14:44:17.086Z,18.20
2018-04-26T14:48:51.470Z,17.90
2018-04-26T14:53:24.703Z,17.70
2018-04-26T14:57:57.936Z,17.50
2018-04-26T15:02:31.920Z,18.00
2018-04-26T15:07:05.102Z,17.90
2018-04-26T15:11:38.331Z,18.00
2018-04-26T15:16:11.558Z,17.50
2018-04-26T15:20:44.779Z,17.20
2018-04-26T15:25:18.707Z,16.90
2018-04-26T15:29:51.948Z,16.90
2018-04-26T15:34:25.181Z,17.20
2018-04-26T15:38:58.399Z,17.70
2018-04-26T15:43:31.635Z,17.90
2018-04-26T15:48:09.555Z,17.70
2018-04-26T15:53:01.411Z,17.80
2018-04-26T15:57:52.071Z,17.00
2018-04-26T16:02:58.100Z,16.90
2018-04-26T16:07:49.919Z,16.90
2018-04-26T16:12:40.785Z,17.10
2018-04-26T16:17:31.816Z,17.20
2018-04-26T16:22:22.966Z,17.10
2018-04-26T16:27:13.849Z,17.10
2018-04-26T16:32:05.483Z,16.80
2018-04-26T16:36:51.550Z,16.80
2018-04-26T16:41:24.726Z,16.80
2018-04-26T16:45:57.890Z,16.70
2018-04-26T16:50:32.598Z,16.30
2018-04-26T16:55:05.817Z,16.20
2018-04-26T16:59:39.055Z,15.80
2018-04-26T17:04:12.269Z,15.50
2018-04-26T17:08:45.482Z,15.20
2018-04-26T17:13:19.895Z,15.20
2018-04-26T17:17:53.930Z,15.30
2018-04-26T17:22:27.969Z,15.50
2018-04-26T17:27:01.985Z,15.50
2018-04-26T17:31:35.946Z,15.40
2018-04-26T17:36:09.215Z,15.40
2018-04-26T17:40:42.419Z,15.30
2018-04-26T17:45:15.662Z,15.10
2018-04-26T17:49:48.834Z,15.00
2018-04-26T17:54:22.789Z,14.80
2018-04-26T17:58:55.971Z,14.80
2018-04-26T18:03:30.633Z,14.20
2018-04-26T18:08:03.799Z,14.10
2018-04-26T18:12:37.012Z,14.10
2018-04-26T18:17:10.245Z,13.90
2018-04-26T18:21:43.471Z,13.80
2018-04-26T18:26:16.769Z,13.60
2018-04-26T18:30:50.051Z,13.30
2018-04-26T18:35:24.042Z,12.30
2018-04-26T18:39:57.298Z,12.20
2018-04-26T18:44:31.250Z,11.60
2018-04-26T18:49:04.435Z,11.60
2018-04-26T18:53:37.636Z,11.30
2018-04-26T18:58:10.865Z,11.10
2018-04-26T19:02:44.046Z,10.90
2018-04-26T19:07:18.052Z,11.00
2018-04-26T19:11:51.266Z,10.90
2018-04-26T19:16:25.230Z,10.90
2018-04-26T19:20:58.520Z,10.90
2018-04-26T19:25:32.430Z,10.10
2018-04-26T19:30:06.593Z,10.20
2018-04-26T19:34:39.901Z,10.10
2018-04-26T19:39:13.090Z,10.10
2018-04-26T19:43:46.365Z,9.90
2018-04-26T19:48:20.302Z,9.40
2018-04-26T19:52:54.348Z,9.30
2018-04-26T19:57:27.531Z,9.20
2018-04-26T20:02:00.710Z,9.30
2018-04-26T20:06:33.894Z,9.30
2018-04-26T20:11:07.078Z,9.00
2018-04-26T20:15:40.263Z,8.80
2018-04-26T20:20:14.217Z,8.80
2018-04-26T20:24:47.407Z,8.70
2018-04-26T20:29:20.593Z,8.70
2018-04-26T20:33:54.593Z,8.40
2018-04-26T20:38:28.942Z,8.40
2018-04-26T20:43:02.490Z,8.40
2018-04-26T20:47:35.819Z,8.40
2018-04-26T20:52:09.025Z,8.30
2018-04-26T20:56:42.205Z,8.30
2018-04-26T21:01:16.191Z,8.50
2018-04-26T21:05:49.730Z,8.40
2018-04-26T21:10:23.698Z,8.30
2018-04-26T21:14:56.917Z,8.30
2018-04-26T21:19:30.155Z,8.10
2018-04-26T21:24:03.391Z,8.10
2018-04-26T21:28:37.500Z,8.00
2018-04-26T21:33:10.662Z,8.00
2018-04-26T21:37:44.030Z,7.90
2018-04-26T21:42:18.026Z,7.90
2018-04-26T21:46:52.176Z,7.80
2018-04-26T21:51:31.794Z,7.70
2018-04-26T21:56:10.592Z,7.60
2018-04-26T22:00:49.467Z,7.40
2018-04-26T22:05:37.440Z,7.40
2018-04-26T22:10:10.661Z,7.50
2018-04-26T22:14:43.882Z,7.50
2018-04-26T22:19:17.871Z,7.50
2018-04-26T22:23:51.128Z,7.40
2018-04-26T22:28:24.366Z,7.40
2018-04-26T22:32:57.743Z,7.40
2018-04-26T22:37:31.976Z,7.30
2018-04-26T22:42:05.228Z,7.20
2018-04-26T22:46:38.486Z,7.30
2018-04-26T22:51:12.475Z,7.30
2018-04-26T22:55:45.668Z,7.20
2018-04-26T23:00:19.640Z,7.20
2018-04-26T23:04:53.634Z,7.20
2018-04-26T23:09:27.709Z,7.10
2018-04-26T23:14:00.930Z,7.10
2018-04-26T23:18:34.116Z,7.10
2018-04-26T23:23:08.111Z,7.10
2018-04-26T23:27:41.326Z,7.00
2018-04-26T23:32:14.580Z,7.00
2018-04-26T23:36:48.095Z,6.80
2018-04-26T23:41:21.379Z,6.80
2018-04-26T23:45:54.643Z,6.90
2018-04-26T23:50:27.858Z,6.90
2018-04-26T23:55:01.089Z,6.60
2018-04-26T23:59:35.105Z,6.50
